createdAt,value
2019-05-14T00:00:43.018Z,3.57
2019-05-14T00:03:15.871Z,3.70
2019-05-14T00:05:47.551Z,3.47
2019-05-14T00:08:19.193Z,3.93
2019-05-14T00:10:52.022Z,3.90
2019-05-14T00:13:23.887Z,3.70
2019-05-14T00:15:55.497Z,3.50
2019-05-14T00:18:27.145Z,3.60
2019-05-14T00:20:58.771Z,3.73
2019-05-14T00:23:32.039Z,4.20
2019-05-14T00:26:03.836Z,4.27
2019-05-14T00:28:35.541Z,4.03
2019-05-14T00:31:07.328Z,4.03
2019-05-14T00:33:39.093Z,4.27
2019-05-14T00:36:11.332Z,4.07
2019-05-14T00:38:43.126Z,3.90
2019-05-14T00:41:14.803Z,4.10
2019-05-14T00:43:46.493Z,4.10
2019-05-14T00:46:18.110Z,4.17
2019-05-14T00:48:51.536Z,4.17
2019-05-14T00:51:23.092Z,3.97
2019-05-14T00:53:54.747Z,4.13
2019-05-14T00:56:26.382Z,4.07
2019-05-14T00:58:58.095Z,4.47
2019-05-14T01:01:31.641Z,3.97
2019-05-14T01:04:03.093Z,3.40
2019-05-14T01:06:34.902Z,3.50
2019-05-14T01:09:07.525Z,4.60
2019-05-14T01:11:39.186Z,4.00
2019-05-14T01:14:12.344Z,4.40
2019-05-14T01:16:44.282Z,4.30
2019-05-14T01:19:15.911Z,4.03
2019-05-14T01:21:47.539Z,4.03
2019-05-14T01:24:21.452Z,4.40
2019-05-14T01:26:52.533Z,3.80
2019-05-14T01:29:24.228Z,4.00
2019-05-14T01:31:55.860Z,4.23
2019-05-14T01:34:27.500Z,5.50
2019-05-14T01:36:59.299Z,5.17
2019-05-14T01:39:32.040Z,4.63
2019-05-14T01:42:03.921Z,4.47
2019-05-14T01:44:35.550Z,4.60
2019-05-14T01:47:07.202Z,5.60
2019-05-14T01:49:38.836Z,4.90
2019-05-14T01:52:11.191Z,4.70
2019-05-14T01:54:43.164Z,4.53
2019-05-14T01:57:15.956Z,4.50
2019-05-14T01:59:47.636Z,4.33
2019-05-14T02:02:19.254Z,4.90
2019-05-14T02:04:51.404Z,5.60
2019-05-14T02:07:23.132Z,4.53
2019-05-14T02:09:54.798Z,4.90
2019-05-14T02:12:26.454Z,5.20
2019-05-14T02:14:58.088Z,4.97
2019-05-14T02:17:31.697Z,4.73
2019-05-14T02:20:03.310Z,5.23
2019-05-14T02:22:34.966Z,4.93
2019-05-14T02:25:08.090Z,6.00
2019-05-14T02:27:41.424Z,6.23
2019-05-14T02:30:13.524Z,5.33
2019-05-14T02:32:45.301Z,5.40
2019-05-14T02:35:20.009Z,4.97
2019-05-14T02:37:50.661Z,5.47
2019-05-14T02:40:22.487Z,5.00
2019-05-14T02:42:54.116Z,4.73
2019-05-14T02:45:25.771Z,5.43
2019-05-14T02:48:00.458Z,5.60
2019-05-14T02:50:30.950Z,5.50
2019-05-14T02:53:02.608Z,5.37
2019-05-14T02:55:34.408Z,5.13
2019-05-14T02:58:06.032Z,5.90
2019-05-14T03:00:40.692Z,5.10
2019-05-14T03:03:11.087Z,5.03
2019-05-14T03:05:42.746Z,5.70
2019-05-14T03:08:14.378Z,5.67
2019-05-14T03:10:49.813Z,5.67
2019-05-14T03:13:20.305Z,4.63
2019-05-14T03:15:52.222Z,4.47
2019-05-14T03:18:23.850Z,5.87
2019-05-14T03:20:55.513Z,6.27
2019-05-14T03:23:30.218Z,5.90
2019-05-14T03:26:01.057Z,5.13
2019-05-14T03:28:32.730Z,5.83
2019-05-14T03:31:04.629Z,6.23
2019-05-14T03:33:42.999Z,6.00
2019-05-14T03:36:17.178Z,4.97
2019-05-14T03:38:43.946Z,4.60
2019-05-14T03:41:15.802Z,5.27
2019-05-14T03:43:49.345Z,5.20
2019-05-14T03:46:38.592Z,5.37
2019-05-14T03:48:55.332Z,5.00
2019-05-14T03:51:29.592Z,6.83
2019-05-14T03:54:06.652Z,5.67
2019-05-14T03:56:34.109Z,6.10
2019-05-14T03:59:06.549Z,5.60
2019-05-14T04:01:40.270Z,5.83
2019-05-14T04:04:12.044Z,5.37
2019-05-14T04:06:45.184Z,6.90
2019-05-14T04:09:20.141Z,4.87
2019-05-14T04:11:53.965Z,4.40
2019-05-14T04:14:29.290Z,6.40
2019-05-14T04:17:09.869Z,4.93
2019-05-14T04:19:39.623Z,5.37
2019-05-14T04:22:14.677Z,5.47
2019-05-14T04:24:49.780Z,4.80
2019-05-14T04:27:23.420Z,4.70
2019-05-14T04:29:58.821Z,5.00
2019-05-14T04:32:31.957Z,4.90
2019-05-14T04:35:03.871Z,4.70
2019-05-14T04:37:36.003Z,3.70
2019-05-14T04:40:10.062Z,4.27
2019-05-14T04:42:42.346Z,4.10
2019-05-14T04:45:14.140Z,4.80
2019-05-14T04:47:49.954Z,3.90
2019-05-14T04:50:20.417Z,4.30
2019-05-14T04:52:53.515Z,3.70
2019-05-14T04:55:25.148Z,3.37
2019-05-14T04:57:59.129Z,3.83
2019-05-14T05:00:30.772Z,3.60
2019-05-14T05:03:02.532Z,3.60
2019-05-14T05:05:34.559Z,3.30
2019-05-14T05:08:09.039Z,3.90
2019-05-14T05:10:39.949Z,3.63
2019-05-14T05:13:11.839Z,3.53
2019-05-14T05:15:43.470Z,3.43
2019-05-14T05:18:18.669Z,4.10
2019-05-14T05:20:50.748Z,3.50
2019-05-14T05:23:22.889Z,3.73
2019-05-14T05:25:54.576Z,3.13
2019-05-14T05:28:28.400Z,2.93
2019-05-14T05:30:59.813Z,3.33
2019-05-14T05:33:31.568Z,3.47
2019-05-14T05:36:03.185Z,2.70
2019-05-14T05:38:34.867Z,3.30
2019-05-14T05:41:08.863Z,2.93
2019-05-14T05:43:40.096Z,3.17
2019-05-14T05:46:11.783Z,2.33
2019-05-14T05:48:44.824Z,2.60
2019-05-14T05:51:18.695Z,3.47
2019-05-14T05:53:50.038Z,2.60
2019-05-14T05:56:21.785Z,2.93
2019-05-14T05:58:53.494Z,3.37
2019-05-14T06:01:39.503Z,2.77
2019-05-14T06:03:58.789Z,2.70
2019-05-14T06:06:30.629Z,2.97
2019-05-14T06:09:02.490Z,2.50
2019-05-14T06:11:34.235Z,2.87
2019-05-14T06:14:08.141Z,2.67
2019-05-14T06:16:39.357Z,2.60
2019-05-14T06:19:11.179Z,2.03
2019-05-14T06:21:43.823Z,2.17
2019-05-14T06:24:15.515Z,2.10
2019-05-14T06:26:48.975Z,2.60
2019-05-14T06:29:21.869Z,1.97
2019-05-14T06:31:53.527Z,3.53
2019-05-14T06:34:25.301Z,2.37
2019-05-14T06:36:59.157Z,2.60
2019-05-14T06:39:30.470Z,2.63
2019-05-14T06:42:02.126Z,3.00
2019-05-14T06:44:33.847Z,2.33
2019-05-14T06:47:05.646Z,2.60
2019-05-14T06:49:38.594Z,2.37
2019-05-14T06:52:10.383Z,2.70
2019-05-14T06:54:42.055Z,2.20
2019-05-14T06:57:17.925Z,2.27
2019-05-14T06:59:51.843Z,1.93
2019-05-14T07:02:23.805Z,2.17
2019-05-14T07:04:55.667Z,2.20
2019-05-14T07:07:30.085Z,1.90
2019-05-14T07:10:00.885Z,1.97
2019-05-14T07:12:32.618Z,2.40
2019-05-14T07:15:04.451Z,2.20
2019-05-14T07:17:38.400Z,1.60
2019-05-14T07:20:11.362Z,2.10
2019-05-14T07:22:43.116Z,2.30
2019-05-14T07:25:15.201Z,2.10
2019-05-14T07:27:49.020Z,2.30
2019-05-14T07:30:21.004Z,1.70
2019-05-14T07:32:52.883Z,2.23
2019-05-14T07:35:24.574Z,2.07
2019-05-14T07:37:59.100Z,2.07
2019-05-14T07:40:30.868Z,1.80
2019-05-14T07:43:02.703Z,2.43
2019-05-14T07:45:34.576Z,2.17
2019-05-14T07:48:08.722Z,1.67
2019-05-14T07:50:40.130Z,1.87
2019-05-14T07:53:11.928Z,1.67
2019-05-14T07:55:43.691Z,1.60
2019-05-14T07:58:15.392Z,1.63
2019-05-14T08:00:49.135Z,1.87
2019-05-14T08:03:20.617Z,1.60
2019-05-14T08:05:52.327Z,2.10
2019-05-14T08:08:24.098Z,2.03
2019-05-14T08:10:56.090Z,2.23
2019-05-14T08:13:28.443Z,1.87
2019-05-14T08:16:00.367Z,1.50
2019-05-14T08:18:32.214Z,1.87
2019-05-14T08:21:04.066Z,1.53
2019-05-14T08:23:35.909Z,1.50
2019-05-14T08:26:08.036Z,1.90
2019-05-14T08:28:39.887Z,1.70
2019-05-14T08:31:11.809Z,1.87
2019-05-14T08:33:43.639Z,2.57
2019-05-14T08:36:15.511Z,2.10
2019-05-14T08:38:49.863Z,2.93
2019-05-14T08:41:20.949Z,1.40
2019-05-14T08:43:52.596Z,1.30
2019-05-14T08:46:24.288Z,1.97
2019-05-14T08:48:58.595Z,2.10
2019-05-14T08:51:30.682Z,1.40
2019-05-14T08:54:03.500Z,1.50
2019-05-14T08:56:35.313Z,1.83
2019-05-14T08:59:08.723Z,1.60
2019-05-14T09:01:56.948Z,1.43
2019-05-14T09:04:14.387Z,1.40
2019-05-14T09:06:48.766Z,1.80
2019-05-14T09:09:22.133Z,1.40
2019-05-14T09:11:53.284Z,1.10
2019-05-14T09:14:25.058Z,1.37
2019-05-14T09:16:59.901Z,1.40
2019-05-14T09:19:31.215Z,1.60
2019-05-14T09:22:03.131Z,1.43
2019-05-14T09:24:34.876Z,1.23
2019-05-14T09:27:08.403Z,1.50
2019-05-14T09:29:40.577Z,1.80
2019-05-14T09:32:12.267Z,1.43
2019-05-14T09:34:44.109Z,1.57
2019-05-14T09:37:19.017Z,1.40
2019-05-14T09:39:50.224Z,0.97
2019-05-14T09:42:22.017Z,1.60
2019-05-14T09:44:53.872Z,1.10
2019-05-14T09:47:28.105Z,1.33
2019-05-14T09:50:15.298Z,1.60
2019-05-14T09:52:32.544Z,1.50
2019-05-14T09:55:04.245Z,1.83
2019-05-14T09:57:36.085Z,1.53
2019-05-14T10:00:10.178Z,1.30
2019-05-14T10:02:42.046Z,1.30
2019-05-14T10:05:14.403Z,1.30
2019-05-14T10:07:46.144Z,1.10
2019-05-14T10:10:19.649Z,1.33
2019-05-14T10:12:56.337Z,1.30
2019-05-14T10:15:25.245Z,1.00
2019-05-14T10:18:00.361Z,1.40
2019-05-14T10:20:40.367Z,1.13
2019-05-14T10:23:04.385Z,1.33
2019-05-14T10:25:38.174Z,1.40
2019-05-14T10:28:09.844Z,1.23
2019-05-14T10:30:41.588Z,1.93
2019-05-14T10:33:14.915Z,1.27
2019-05-14T10:35:48.459Z,1.20
2019-05-14T10:38:21.407Z,0.87
2019-05-14T10:40:53.347Z,1.10
2019-05-14T10:43:25.139Z,1.30
2019-05-14T10:45:58.056Z,0.93
2019-05-14T10:48:29.917Z,1.00
2019-05-14T10:51:03.535Z,0.90
2019-05-14T10:53:35.183Z,1.40
2019-05-14T10:56:06.867Z,1.23
2019-05-14T10:58:38.628Z,1.00
2019-05-14T11:01:11.270Z,0.87
2019-05-14T11:03:43.388Z,0.97
2019-05-14T11:06:15.123Z,0.90
2019-05-14T11:08:49.043Z,1.30
2019-05-14T11:11:20.273Z,1.10
2019-05-14T11:13:51.995Z,1.20
2019-05-14T11:16:23.845Z,1.00
2019-05-14T11:18:57.497Z,1.10
2019-05-14T11:21:30.207Z,1.00
2019-05-14T11:24:01.987Z,1.03
2019-05-14T11:26:33.657Z,1.07
2019-05-14T11:29:05.386Z,1.13
2019-05-14T11:31:39.159Z,0.77
2019-05-14T11:34:10.441Z,1.27
2019-05-14T11:36:42.229Z,1.00
2019-05-14T11:39:14.137Z,1.13
2019-05-14T11:41:45.918Z,1.20
2019-05-14T11:44:18.545Z,1.03
2019-05-14T11:46:57.462Z,1.50
2019-05-14T11:49:24.276Z,0.90
2019-05-14T11:52:07.267Z,0.90
2019-05-14T11:54:30.363Z,1.33
2019-05-14T11:57:02.096Z,1.30
2019-05-14T11:59:33.921Z,1.00
2019-05-14T12:02:05.953Z,1.10
2019-05-14T12:04:39.177Z,0.80
2019-05-14T12:07:11.210Z,0.90
2019-05-14T12:09:43.205Z,1.27
2019-05-14T12:12:18.920Z,1.27
2019-05-14T12:14:50.533Z,1.50
2019-05-14T12:17:22.238Z,1.40
2019-05-14T12:19:53.877Z,1.10
2019-05-14T12:22:28.437Z,1.53
2019-05-14T12:24:59.352Z,1.00
2019-05-14T12:27:32.639Z,0.87
2019-05-14T12:30:04.590Z,1.20
2019-05-14T12:32:39.194Z,0.90
2019-05-14T12:35:10.579Z,1.03
2019-05-14T12:37:42.281Z,1.23
2019-05-14T12:40:14.215Z,2.30
2019-05-14T12:42:46.349Z,1.27
2019-05-14T12:45:19.138Z,1.13
2019-05-14T12:47:51.303Z,1.00
2019-05-14T12:50:23.273Z,1.00
2019-05-14T12:52:54.992Z,0.97
2019-05-14T12:55:28.580Z,1.23
2019-05-14T12:58:00.197Z,0.80
2019-05-14T13:00:31.961Z,1.00
2019-05-14T13:03:03.742Z,1.30
2019-05-14T13:05:35.477Z,1.20
2019-05-14T13:08:11.232Z,1.13
2019-05-14T13:10:42.459Z,0.90
2019-05-14T13:13:14.165Z,1.10
2019-05-14T13:15:48.439Z,1.00
2019-05-14T13:18:20.473Z,1.40
2019-05-14T13:20:52.179Z,1.40
2019-05-14T13:23:23.848Z,1.30
2019-05-14T13:25:55.513Z,1.53
2019-05-14T13:28:29.031Z,1.30
2019-05-14T13:31:00.856Z,1.20
2019-05-14T13:33:32.727Z,1.20
2019-05-14T13:36:04.410Z,1.20
2019-05-14T13:38:39.316Z,0.90
2019-05-14T13:41:09.667Z,0.83
2019-05-14T13:43:41.588Z,1.40
2019-05-14T13:46:15.097Z,1.43
2019-05-14T13:48:50.012Z,1.23
2019-05-14T13:51:20.556Z,1.10
2019-05-14T13:53:52.526Z,0.90
2019-05-14T13:56:24.326Z,1.13
2019-05-14T13:58:58.888Z,1.20
2019-05-14T14:01:29.848Z,1.10
2019-05-14T14:04:10.844Z,1.27
2019-05-14T14:06:35.510Z,1.00
2019-05-14T14:09:12.386Z,1.13
2019-05-14T14:11:41.765Z,1.00
2019-05-14T14:14:13.424Z,1.10
2019-05-14T14:16:48.956Z,1.37
2019-05-14T14:19:20.097Z,1.47
2019-05-14T14:21:51.964Z,0.83
2019-05-14T14:24:23.765Z,0.90
2019-05-14T14:26:55.541Z,0.80
2019-05-14T14:29:27.933Z,1.00
2019-05-14T14:31:59.671Z,1.17
2019-05-14T14:34:31.299Z,1.10
2019-05-14T14:37:02.987Z,1.40
2019-05-14T14:39:34.583Z,1.10
2019-05-14T14:42:06.346Z,1.13
2019-05-14T14:44:39.391Z,1.10
2019-05-14T14:47:11.103Z,1.20
2019-05-14T14:49:44.132Z,1.20
2019-05-14T14:52:16.062Z,1.23
2019-05-14T14:54:48.864Z,1.13
2019-05-14T14:57:20.775Z,0.93
2019-05-14T14:59:56.045Z,0.90
2019-05-14T15:02:28.584Z,1.10
2019-05-14T15:04:59.778Z,1.20
2019-05-14T15:07:31.552Z,1.13
2019-05-14T15:10:03.354Z,0.80
2019-05-14T15:12:36.092Z,1.20
2019-05-14T15:15:08.846Z,1.00
2019-05-14T15:17:41.676Z,0.90
2019-05-14T15:20:13.836Z,0.80
2019-05-14T15:22:48.657Z,1.30
2019-05-14T15:25:19.193Z,0.83
2019-05-14T15:27:50.948Z,1.33
2019-05-14T15:30:22.822Z,1.13
2019-05-14T15:32:54.685Z,1.33
2019-05-14T15:35:28.481Z,1.03
2019-05-14T15:38:00.136Z,1.20
2019-05-14T15:40:31.862Z,1.10
2019-05-14T15:43:03.609Z,1.10
2019-05-14T15:45:37.495Z,0.80
2019-05-14T15:48:09.173Z,1.03
2019-05-14T15:50:41.046Z,1.10
2019-05-14T15:53:12.882Z,1.10
2019-05-14T15:55:45.507Z,1.23
2019-05-14T15:58:21.313Z,1.10
2019-05-14T16:00:51.676Z,0.80
2019-05-14T16:03:23.528Z,1.60
2019-05-14T16:05:55.344Z,1.03
2019-05-14T16:08:29.611Z,0.90
2019-05-14T16:11:05.024Z,1.00
2019-05-14T16:13:34.052Z,1.07
2019-05-14T16:16:10.273Z,1.10
2019-05-14T16:18:39.376Z,1.00
2019-05-14T16:21:11.218Z,0.80
2019-05-14T16:23:42.861Z,1.30
2019-05-14T16:26:14.565Z,1.70
2019-05-14T16:28:46.269Z,1.07
2019-05-14T16:31:18.515Z,1.33
2019-05-14T16:33:50.409Z,1.10
2019-05-14T16:36:22.235Z,1.17
2019-05-14T16:38:54.045Z,1.10
2019-05-14T16:41:25.815Z,1.33
2019-05-14T16:43:58.735Z,1.00
2019-05-14T16:46:30.524Z,1.07
2019-05-14T16:49:02.187Z,1.20
2019-05-14T16:51:33.868Z,0.93
2019-05-14T16:54:05.656Z,1.13
2019-05-14T16:56:41.149Z,1.00
2019-05-14T16:59:10.954Z,1.03
2019-05-14T17:01:42.738Z,1.57
2019-05-14T17:04:14.568Z,1.27
2019-05-14T17:06:46.306Z,1.73
2019-05-14T17:09:19.712Z,1.00
2019-05-14T17:11:51.623Z,0.80
2019-05-14T17:14:23.545Z,0.90
2019-05-14T17:16:55.243Z,1.50
2019-05-14T17:19:29.598Z,0.93
2019-05-14T17:22:00.443Z,0.70
2019-05-14T17:24:32.131Z,1.10
2019-05-14T17:27:03.886Z,1.20
2019-05-14T17:29:35.726Z,1.03
2019-05-14T17:32:08.324Z,1.23
2019-05-14T17:34:40.143Z,1.03
2019-05-14T17:37:12.330Z,1.20
2019-05-14T17:39:44.108Z,0.80
2019-05-14T17:42:20.092Z,1.03
2019-05-14T17:44:52.033Z,1.13
2019-05-14T17:47:24.003Z,1.33
2019-05-14T17:49:56.012Z,0.97
2019-05-14T17:52:30.121Z,1.00
2019-05-14T17:55:01.732Z,1.10
2019-05-14T17:57:35.686Z,1.07
2019-05-14T18:00:09.738Z,1.00
2019-05-14T18:02:43.144Z,1.20
2019-05-14T18:05:18.621Z,0.90
2019-05-14T18:07:49.191Z,0.97
2019-05-14T18:10:21.241Z,1.00
2019-05-14T18:12:53.446Z,1.13
2019-05-14T18:15:25.648Z,1.23
2019-05-14T18:17:58.943Z,1.20
2019-05-14T18:20:33.956Z,1.20
2019-05-14T18:23:05.919Z,1.10
2019-05-14T18:25:38.940Z,1.80
2019-05-14T18:28:13.275Z,1.10
2019-05-14T18:30:45.323Z,1.00
2019-05-14T18:33:18.717Z,1.03
2019-05-14T18:35:51.038Z,1.40
2019-05-14T18:38:23.098Z,1.40
2019-05-14T18:40:55.049Z,1.30
2019-05-14T18:43:28.915Z,1.40
2019-05-14T18:46:01.041Z,1.27
2019-05-14T18:48:32.931Z,1.10
2019-05-14T18:51:04.893Z,1.20
2019-05-14T18:53:51.393Z,1.00
2019-05-14T18:56:24.499Z,1.20
2019-05-14T18:58:56.452Z,1.10
2019-05-14T19:01:29.060Z,1.47
2019-05-14T19:04:01.244Z,1.20
2019-05-14T19:06:33.339Z,1.20
2019-05-14T19:09:10.564Z,1.00
2019-05-14T19:11:43.930Z,1.27
2019-05-14T19:14:15.753Z,1.00
2019-05-14T19:17:09.289Z,1.33
2019-05-14T19:19:41.439Z,1.10
2019-05-14T19:22:13.286Z,1.27
2019-05-14T19:24:45.928Z,1.70
2019-05-14T19:27:17.900Z,1.27
2019-05-14T19:29:49.916Z,1.00
2019-05-14T19:32:21.784Z,1.27
2019-05-14T19:34:53.787Z,1.70
2019-05-14T19:37:25.712Z,1.27
2019-05-14T19:39:58.722Z,1.90
2019-05-14T19:42:30.672Z,1.30
2019-05-14T19:45:02.544Z,1.43
2019-05-14T19:47:34.479Z,2.63
2019-05-14T19:50:08.966Z,1.33
2019-05-14T19:52:41.113Z,1.53
2019-05-14T19:55:13.383Z,1.50
2019-05-14T19:57:45.334Z,3.10
2019-05-14T20:00:24.058Z,1.80
2019-05-14T20:02:58.067Z,1.50
2019-05-14T20:05:29.985Z,2.13
2019-05-14T20:08:01.816Z,1.53
2019-05-14T20:10:33.740Z,1.53
2019-05-14T20:13:05.762Z,1.90
2019-05-14T20:15:38.970Z,1.30
2019-05-14T20:18:12.060Z,1.53
2019-05-14T20:20:43.889Z,1.70
2019-05-14T20:23:18.355Z,1.40
2019-05-14T20:25:49.736Z,1.40
2019-05-14T20:28:21.721Z,1.43
2019-05-14T20:30:53.704Z,1.73
2019-05-14T20:33:26.113Z,1.87
2019-05-14T20:35:58.957Z,1.50
2019-05-14T20:38:31.009Z,2.00
2019-05-14T20:41:02.952Z,1.87
2019-05-14T20:43:35.020Z,1.57
2019-05-14T20:46:07.106Z,2.07
2019-05-14T20:48:39.297Z,2.00
2019-05-14T20:51:11.376Z,1.97
2019-05-14T20:53:43.240Z,1.67
2019-05-14T20:56:15.308Z,2.20
2019-05-14T20:58:48.170Z,1.87
2019-05-14T21:01:20.164Z,1.67
2019-05-14T21:03:52.162Z,1.90
2019-05-14T21:06:24.289Z,2.43
2019-05-14T21:08:58.317Z,2.43
2019-05-14T21:11:30.311Z,2.30
2019-05-14T21:14:02.130Z,1.70
2019-05-14T21:16:33.952Z,2.03
2019-05-14T21:19:14.808Z,1.60
2019-05-14T21:21:49.137Z,2.07
2019-05-14T21:24:21.873Z,1.90
2019-05-14T21:26:55.061Z,2.00
2019-05-14T21:29:30.315Z,1.53
2019-05-14T21:32:01.607Z,1.97
2019-05-14T21:34:33.489Z,1.57
2019-05-14T21:37:05.326Z,1.63
2019-05-14T21:39:38.277Z,1.47
2019-05-14T21:42:11.068Z,1.83
2019-05-14T21:44:43.387Z,1.83
2019-05-14T21:47:15.233Z,1.40
2019-05-14T21:49:48.375Z,2.10
2019-05-14T21:52:20.281Z,2.30
2019-05-14T21:54:51.973Z,1.67
2019-05-14T21:57:23.795Z,1.80
2019-05-14T21:59:55.621Z,2.30
2019-05-14T22:02:30.058Z,2.10
2019-05-14T22:05:01.524Z,1.50
2019-05-14T22:07:34.009Z,1.93
2019-05-14T22:10:07.326Z,1.67
2019-05-14T22:12:39.631Z,1.87
2019-05-14T22:15:13.302Z,2.00
2019-05-14T22:17:45.132Z,1.67
2019-05-14T22:20:30.736Z,1.67
2019-05-14T22:23:02.997Z,1.30
2019-05-14T22:25:35.074Z,2.03
2019-05-14T22:28:15.366Z,2.10
2019-05-14T22:30:43.352Z,1.60
2019-05-14T22:33:14.975Z,1.63
2019-05-14T22:35:48.614Z,1.60
2019-05-14T22:38:20.397Z,1.53
2019-05-14T22:40:52.256Z,2.03
2019-05-14T22:43:24.118Z,2.73
2019-05-14T22:45:55.842Z,1.83
2019-05-14T22:48:27.622Z,1.73
2019-05-14T22:50:59.347Z,1.40
2019-05-14T22:53:31.022Z,1.80
2019-05-14T22:56:02.827Z,1.60
2019-05-14T22:58:38.298Z,1.57
2019-05-14T23:01:14.823Z,1.90
2019-05-14T23:03:43.114Z,2.10
2019-05-14T23:06:14.776Z,1.57
2019-05-14T23:08:48.655Z,2.07
2019-05-14T23:11:20.053Z,1.77
2019-05-14T23:13:51.904Z,1.83
2019-05-14T23:16:36.400Z,1.50
2019-05-14T23:18:58.351Z,1.67
2019-05-14T23:21:32.344Z,1.80
2019-05-14T23:24:04.047Z,1.93
2019-05-14T23:26:35.771Z,1.37
2019-05-14T23:29:07.525Z,1.60
2019-05-14T23:31:39.225Z,2.00
2019-05-14T23:34:12.046Z,1.93
2019-05-14T23:36:43.799Z,1.77
2019-05-14T23:39:17.157Z,1.60
2019-05-14T23:41:49.354Z,1.70
2019-05-14T23:44:21.033Z,1.53
2019-05-14T23:46:53.149Z,1.60
2019-05-14T23:49:24.841Z,2.20
2019-05-14T23:51:56.779Z,1.90
2019-05-14T23:54:29.274Z,1.90
2019-05-14T23:57:01.029Z,1.80
2019-05-14T23:59:35.841Z,1.63
